Aeroporto :
LOGIN :

Iscrizione | Disclaimer

   EN    FR    IT 

 










Sommario :    VFR   VFR Marginale   IFR   IFR Intensivo   IFR Molto Intensivo
Visibilità : 
Base nubi : 
>= 8 km
>= 3000ft
5 / 8 km
1000 / 3000 ft
1500m / 5 km
500 / 1000 ft
800 / 1500m
200 / 500 ft
< 800m
< 200 ft
Simboli :   Temporali  Nebbia  Neve Forte  Precipitazioni Forti  Vento > 20 kt
SIGMETs :   Varie  Temporali  Ghiacco  Turbolenza  Onda orograficha  Ceneri Vulcaniche






- Altitudine del aeroporto : 23 ft
- Codice IATA : XFW


EDHI - Hamburg Finkenwerder

ULTIMO METAR :
  • 180420Z AUTO 25014KT 9999 3000 // BKN020/// BKN037/// 07/04 Q1011

METARs OBSOLETI :
  • 180350Z AUTO 25016KT 9999 2900 // BKN019/// BKN056/// 07/04 Q1012
  • 180320Z AUTO 24016KT 9999 2700 // SCT018/// BKN029/// OVC045/// 07/04 Q1011
  • 180250Z AUTO 23012KT 9999 2700 // BKN019/// BKN025/// OVC060/// 06/05 Q1011
  • 180220Z AUTO 23012KT 9999 2800 // FEW022/// BKN026/// OVC110/// 06/04 Q1011
  • 180150Z AUTO 23010KT 9999 2700 // BKN025/// BKN030/// BKN044/// 06/04 Q1011

Previsioni scadute.



MetMap, La meteo Aeronautica in un colpo d'occhio ! - Copyright ORBIFLY Dicembre 2007 - Disclaimer

ORBIFLY MET'MAP TEAM :

Programmazione e sviluppo : Alexandra Zaïnal
Concezione : Baudouin d'Aumeries
Aiuto per la programmazione : Marc-Olivier Méhu
Supporto tecnico e logistico : Manuel Goepfert
Aiuto per la traduzione : Arnaldo La Scala

Contatto : metmap@orbifly.com




FONTI E CREDITI :

   NOAA